createdAt,value
2023-04-07T00:00:33.426Z,23.46
2023-04-07T00:01:33.462Z,23.46
2023-04-07T00:02:33.624Z,23.45
2023-04-07T00:03:33.649Z,23.45
2023-04-07T00:04:33.727Z,23.45
2023-04-07T00:05:33.669Z,23.45
2023-04-07T00:06:33.724Z,23.45
2023-04-07T00:07:37.347Z,23.45
2023-04-07T00:08:34.792Z,23.45
2023-04-07T00:09:33.773Z,23.45
2023-04-07T00:10:33.776Z,23.44
2023-04-07T00:11:33.777Z,23.44
2023-04-07T00:12:33.764Z,23.44
2023-04-07T00:13:33.741Z,23.44
2023-04-07T00:14:33.852Z,23.44
2023-04-07T00:15:33.770Z,23.44
2023-04-07T00:16:33.804Z,23.43
2023-04-07T00:17:33.908Z,23.44
2023-04-07T00:18:33.912Z,23.44
2023-04-07T00:19:33.976Z,23.44
2023-04-07T00:20:34.049Z,23.43
2023-04-07T00:21:34.073Z,23.43
2023-04-07T00:22:34.132Z,23.43
2023-04-07T00:23:34.186Z,23.43
2023-04-07T00:24:34.898Z,23.43
2023-04-07T00:25:34.305Z,23.43
2023-04-07T00:26:34.366Z,23.44
2023-04-07T00:27:34.397Z,23.43
2023-04-07T00:28:34.468Z,23.43
2023-04-07T00:29:34.515Z,23.43
2023-04-07T00:30:34.573Z,23.43
2023-04-07T00:31:34.677Z,23.43
2023-04-07T00:32:35.379Z,23.43
2023-04-07T00:33:34.760Z,23.43
2023-04-07T00:34:34.803Z,23.43
2023-04-07T00:35:34.920Z,23.42
2023-04-07T00:36:34.918Z,23.42
2023-04-07T00:37:34.962Z,23.42
2023-04-07T00:38:35.026Z,23.42
2023-04-07T00:39:35.097Z,23.42
2023-04-07T00:40:35.145Z,23.42
2023-04-07T00:41:35.204Z,23.42
2023-04-07T00:42:35.275Z,23.41
2023-04-07T00:43:35.316Z,23.42
2023-04-07T00:44:35.388Z,23.43
2023-04-07T00:45:35.469Z,23.42
2023-04-07T00:46:35.526Z,23.42
2023-04-07T00:47:35.585Z,23.42
2023-04-07T00:48:35.614Z,23.42
2023-04-07T00:49:35.674Z,23.42
2023-04-07T00:50:35.732Z,23.42
2023-04-07T00:51:35.777Z,23.42
2023-04-07T00:52:35.846Z,23.42
2023-04-07T00:53:35.902Z,23.42
2023-04-07T00:54:35.941Z,23.42
2023-04-07T00:55:36.023Z,23.42
2023-04-07T00:56:36.072Z,23.41
2023-04-07T00:57:36.137Z,23.41
2023-04-07T00:58:36.193Z,23.42
2023-04-07T00:59:36.248Z,23.42
2023-04-07T01:00:36.320Z,23.41
2023-04-07T01:01:36.509Z,23.41
2023-04-07T01:02:36.731Z,23.41
2023-04-07T01:03:36.888Z,23.41
2023-04-07T01:04:36.722Z,23.40
2023-04-07T01:05:36.638Z,23.41
2023-04-07T01:06:36.685Z,23.40
2023-04-07T01:07:36.742Z,23.40
2023-04-07T01:08:36.795Z,23.40
2023-04-07T01:09:36.881Z,23.41
2023-04-07T01:10:36.923Z,23.40
2023-04-07T01:11:36.993Z,23.40
2023-04-07T01:12:37.053Z,23.40
2023-04-07T01:13:37.098Z,23.40
2023-04-07T01:14:37.183Z,23.40
2023-04-07T01:15:37.235Z,23.40
2023-04-07T01:16:37.333Z,23.40
2023-04-07T01:17:37.384Z,23.39
2023-04-07T01:18:37.421Z,23.40
2023-04-07T01:19:37.489Z,23.40
2023-04-07T01:20:37.543Z,23.41
2023-04-07T01:21:37.596Z,23.40
2023-04-07T01:22:37.660Z,23.39
2023-04-07T01:23:37.755Z,23.40
2023-04-07T01:24:37.802Z,23.40
2023-04-07T01:25:37.843Z,23.40
2023-04-07T01:26:37.912Z,23.39
2023-04-07T01:27:37.974Z,23.40
2023-04-07T01:28:38.029Z,23.40
2023-04-07T01:29:38.103Z,23.39
2023-04-07T01:30:38.173Z,23.40
2023-04-07T01:31:38.243Z,23.39
2023-04-07T01:32:38.309Z,23.39
2023-04-07T01:33:38.359Z,23.38
2023-04-07T01:34:38.408Z,23.39
2023-04-07T01:35:38.484Z,23.40
2023-04-07T01:36:38.590Z,23.39
2023-04-07T01:37:38.673Z,23.40
2023-04-07T01:38:38.646Z,23.40
2023-04-07T01:39:38.737Z,23.39
2023-04-07T01:40:38.780Z,23.39
2023-04-07T01:41:38.836Z,23.39
2023-04-07T01:42:38.905Z,23.39
2023-04-07T01:43:38.957Z,23.38
2023-04-07T01:44:39.030Z,23.39
2023-04-07T01:45:39.076Z,23.39
2023-04-07T01:46:39.171Z,23.39
2023-04-07T01:47:39.273Z,23.38
2023-04-07T01:48:39.286Z,23.39
2023-04-07T01:49:39.337Z,23.39
2023-04-07T01:50:39.449Z,23.38
2023-04-07T01:51:39.478Z,23.38
2023-04-07T01:52:39.519Z,23.39
2023-04-07T01:53:39.576Z,23.38
2023-04-07T01:54:39.635Z,23.38
2023-04-07T01:55:39.704Z,23.38
2023-04-07T01:56:39.773Z,23.38
2023-04-07T01:57:39.836Z,23.38
2023-04-07T01:58:39.880Z,23.38
2023-04-07T01:59:39.957Z,23.38
2023-04-07T02:00:40.008Z,23.38
2023-04-07T02:01:40.237Z,23.37
2023-04-07T02:02:40.210Z,23.38
2023-04-07T02:03:40.247Z,23.37
2023-04-07T02:04:40.263Z,23.37
2023-04-07T02:05:40.315Z,23.36
2023-04-07T02:06:40.377Z,23.37
2023-04-07T02:07:40.459Z,23.37
2023-04-07T02:08:40.492Z,23.37
2023-04-07T02:09:40.568Z,23.37
2023-04-07T02:10:40.638Z,23.37
2023-04-07T02:11:40.681Z,23.37
2023-04-07T02:12:40.755Z,23.37
2023-04-07T02:13:40.815Z,23.37
2023-04-07T02:14:40.858Z,23.37
2023-04-07T02:15:40.918Z,23.37
2023-04-07T02:16:40.990Z,23.37
2023-04-07T02:17:41.103Z,23.37
2023-04-07T02:18:41.101Z,23.36
2023-04-07T02:19:41.194Z,23.36
2023-04-07T02:20:41.268Z,23.36
2023-04-07T02:21:41.284Z,23.37
2023-04-07T02:22:41.370Z,23.37
2023-04-07T02:23:41.424Z,23.36
2023-04-07T02:24:41.482Z,23.36
2023-04-07T02:25:41.570Z,23.37
2023-04-07T02:26:41.609Z,23.37
2023-04-07T02:27:41.650Z,23.36
2023-04-07T02:28:41.736Z,23.36
2023-04-07T02:29:41.778Z,23.36
2023-04-07T02:30:41.857Z,23.37
2023-04-07T02:31:41.989Z,23.36
2023-04-07T02:32:42.005Z,23.36
2023-04-07T02:33:42.044Z,23.36
2023-04-07T02:34:42.068Z,23.36
2023-04-07T02:35:42.162Z,23.35
2023-04-07T02:36:42.212Z,23.36
2023-04-07T02:37:42.244Z,23.35
2023-04-07T02:38:42.292Z,23.36
2023-04-07T02:39:42.352Z,23.36
2023-04-07T02:40:42.436Z,23.36
2023-04-07T02:41:42.466Z,23.36
2023-04-07T02:42:42.529Z,23.36
2023-04-07T02:43:42.612Z,23.35
2023-04-07T02:44:42.650Z,23.35
2023-04-07T02:45:42.741Z,23.35
2023-04-07T02:46:42.779Z,23.35
2023-04-07T02:47:42.989Z,23.35
2023-04-07T02:48:42.912Z,23.35
2023-04-07T02:49:42.971Z,23.35
2023-04-07T02:50:43.062Z,23.35
2023-04-07T02:51:43.109Z,23.35
2023-04-07T02:52:43.180Z,23.35
2023-04-07T02:53:43.229Z,23.35
2023-04-07T02:54:43.292Z,23.35
2023-04-07T02:55:43.370Z,23.35
2023-04-07T02:56:43.429Z,23.35
2023-04-07T02:57:43.475Z,23.35
2023-04-07T02:58:43.544Z,23.35
2023-04-07T02:59:43.607Z,23.34
2023-04-07T03:00:43.678Z,23.34
2023-04-07T03:01:43.785Z,23.34
2023-04-07T03:02:43.926Z,23.34
2023-04-07T03:03:43.882Z,23.34
2023-04-07T03:04:43.911Z,23.34
2023-04-07T03:05:43.949Z,23.34
2023-04-07T03:06:44.016Z,23.34
2023-04-07T03:07:44.083Z,23.34
2023-04-07T03:08:44.154Z,23.35
2023-04-07T03:09:44.190Z,23.34
2023-04-07T03:10:44.258Z,23.35
2023-04-07T03:11:44.324Z,23.35
2023-04-07T03:12:44.396Z,23.35
2023-04-07T03:13:44.447Z,23.34
2023-04-07T03:14:44.510Z,23.34
2023-04-07T03:15:44.560Z,23.35
2023-04-07T03:16:44.697Z,23.34
2023-04-07T03:17:44.727Z,23.34
2023-04-07T03:18:44.756Z,23.33
2023-04-07T03:19:44.820Z,23.34
2023-04-07T03:20:44.862Z,23.33
2023-04-07T03:21:44.919Z,23.34
2023-04-07T03:22:44.991Z,23.34
2023-04-07T03:23:45.040Z,23.34
2023-04-07T03:24:45.110Z,23.34
2023-04-07T03:25:46.882Z,23.34
2023-04-07T03:26:45.286Z,23.33
2023-04-07T03:27:45.303Z,23.33
2023-04-07T03:28:45.340Z,23.33
2023-04-07T03:29:45.404Z,23.33
2023-04-07T03:30:45.491Z,23.33
2023-04-07T03:31:45.630Z,23.33
2023-04-07T03:32:45.616Z,23.33
2023-04-07T03:33:45.638Z,23.33
2023-04-07T03:34:45.720Z,23.33
2023-04-07T03:35:45.786Z,23.33
2023-04-07T03:36:45.843Z,23.33
2023-04-07T03:37:45.895Z,23.33
2023-04-07T03:38:45.971Z,23.33
2023-04-07T03:39:46.028Z,23.33
2023-04-07T03:40:46.087Z,23.33
2023-04-07T03:41:46.155Z,23.32
2023-04-07T03:42:46.196Z,23.33
2023-04-07T03:43:46.267Z,23.32
2023-04-07T03:44:46.313Z,23.33
2023-04-07T03:45:46.373Z,23.32
2023-04-07T03:46:46.453Z,23.33
2023-04-07T03:47:46.548Z,23.33
2023-04-07T03:48:46.572Z,23.32
2023-04-07T03:49:46.628Z,23.33
2023-04-07T03:50:46.686Z,23.32
2023-04-07T03:51:46.757Z,23.32
2023-04-07T03:52:46.843Z,23.33
2023-04-07T03:53:46.882Z,23.32
2023-04-07T03:54:46.947Z,23.32
2023-04-07T03:55:46.990Z,23.32
2023-04-07T03:56:47.050Z,23.32
2023-04-07T03:57:47.118Z,23.32
2023-04-07T03:58:47.176Z,23.32
2023-04-07T03:59:47.250Z,23.32
2023-04-07T04:00:47.305Z,23.31
2023-04-07T04:01:47.406Z,23.31
2023-04-07T04:02:47.542Z,23.31
2023-04-07T04:03:47.624Z,23.31
2023-04-07T04:04:47.637Z,23.32
2023-04-07T04:05:47.593Z,23.31
2023-04-07T04:06:47.657Z,23.32
2023-04-07T04:07:47.752Z,23.32
2023-04-07T04:08:47.761Z,23.32
2023-04-07T04:09:47.810Z,23.31
2023-04-07T04:10:47.897Z,23.31
2023-04-07T04:11:47.988Z,23.32
2023-04-07T04:12:48.030Z,23.31
2023-04-07T04:13:48.071Z,23.31
2023-04-07T04:14:48.155Z,23.32
2023-04-07T04:15:48.224Z,23.31
2023-04-07T04:16:48.239Z,23.31
2023-04-07T04:17:48.359Z,23.31
2023-04-07T04:18:48.351Z,23.31
2023-04-07T04:19:48.423Z,23.31
2023-04-07T04:20:48.503Z,23.31
2023-04-07T04:21:48.561Z,23.31
2023-04-07T04:22:48.607Z,23.31
2023-04-07T04:23:48.647Z,23.31
2023-04-07T04:24:48.745Z,23.31
2023-04-07T04:25:48.769Z,23.31
2023-04-07T04:26:48.827Z,23.32
2023-04-07T04:27:48.892Z,23.31
2023-04-07T04:28:48.934Z,23.31
2023-04-07T04:29:48.988Z,23.32
2023-04-07T04:30:49.040Z,23.31
2023-04-07T04:31:49.167Z,23.31
2023-04-07T04:32:49.167Z,23.31
2023-04-07T04:33:49.246Z,23.31
2023-04-07T04:34:49.306Z,23.32
2023-04-07T04:35:49.360Z,23.32
2023-04-07T04:36:49.441Z,23.32
2023-04-07T04:37:49.500Z,23.31
2023-04-07T04:38:49.550Z,23.31
2023-04-07T04:39:49.623Z,23.31
2023-04-07T04:40:49.666Z,23.31
2023-04-07T04:41:49.721Z,23.31
2023-04-07T04:42:49.797Z,23.31
2023-04-07T04:43:49.840Z,23.30
2023-04-07T04:44:49.901Z,23.31
2023-04-07T04:45:49.990Z,23.31
2023-04-07T04:46:50.077Z,23.31
2023-04-07T04:47:50.130Z,23.31
2023-04-07T04:48:50.161Z,23.31
2023-04-07T04:49:50.220Z,23.31
2023-04-07T04:50:50.270Z,23.31
2023-04-07T04:51:50.357Z,23.31
2023-04-07T04:52:50.412Z,23.31
2023-04-07T04:53:50.540Z,23.30
2023-04-07T04:54:50.535Z,23.30
2023-04-07T04:55:50.613Z,23.30
2023-04-07T04:56:50.661Z,23.30
2023-04-07T04:57:50.727Z,23.30
2023-04-07T04:58:50.780Z,23.30
2023-04-07T04:59:50.854Z,23.30
2023-04-07T05:00:50.940Z,23.31
2023-04-07T05:01:51.076Z,23.30
2023-04-07T05:02:51.247Z,23.30
2023-04-07T05:03:51.310Z,23.31
2023-04-07T05:04:51.282Z,23.30
2023-04-07T05:05:51.242Z,23.30
2023-04-07T05:06:51.303Z,23.31
2023-04-07T05:07:51.373Z,23.30
2023-04-07T05:08:51.449Z,23.30
2023-04-07T05:09:51.491Z,23.31
2023-04-07T05:10:51.553Z,23.30
2023-04-07T05:11:51.608Z,23.30
2023-04-07T05:12:51.681Z,23.30
2023-04-07T05:13:52.015Z,23.30
2023-04-07T05:14:51.775Z,23.30
2023-04-07T05:15:51.870Z,23.31
2023-04-07T05:16:51.879Z,23.31
2023-04-07T05:17:51.977Z,23.30
2023-04-07T05:18:52.006Z,23.31
2023-04-07T05:19:52.069Z,23.31
2023-04-07T05:20:52.124Z,23.31
2023-04-07T05:21:52.220Z,23.30
2023-04-07T05:22:52.265Z,23.31
2023-04-07T05:23:52.559Z,23.30
2023-04-07T05:24:52.405Z,23.31
2023-04-07T05:25:52.446Z,23.31
2023-04-07T05:26:52.498Z,23.30
2023-04-07T05:27:52.593Z,23.30
2023-04-07T05:28:52.637Z,23.31
2023-04-07T05:29:52.694Z,23.30
2023-04-07T05:30:52.752Z,23.31
2023-04-07T05:31:52.845Z,23.30
2023-04-07T05:32:52.953Z,23.31
2023-04-07T05:33:53.314Z,23.30
2023-04-07T05:34:53.020Z,23.30
2023-04-07T05:35:53.201Z,23.30
2023-04-07T05:36:53.140Z,23.31
2023-04-07T05:37:53.201Z,23.30
2023-04-07T05:38:53.239Z,23.31
2023-04-07T05:39:53.355Z,23.30
2023-04-07T05:40:53.393Z,23.31
2023-04-07T05:41:53.445Z,23.31
2023-04-07T05:42:53.510Z,23.30
2023-04-07T05:43:53.645Z,23.30
2023-04-07T05:44:53.614Z,23.30
2023-04-07T05:45:53.741Z,23.30
2023-04-07T05:46:53.749Z,23.30
2023-04-07T05:47:53.838Z,23.30
2023-04-07T05:48:53.865Z,23.31
2023-04-07T05:49:53.925Z,23.30
2023-04-07T05:50:54.020Z,23.31
2023-04-07T05:51:54.060Z,23.31
2023-04-07T05:52:54.138Z,23.31
2023-04-07T05:53:54.223Z,23.30
2023-04-07T05:54:54.229Z,23.30
2023-04-07T05:55:54.326Z,23.30
2023-04-07T05:56:54.364Z,23.31
2023-04-07T05:57:54.426Z,23.31
2023-04-07T05:58:54.481Z,23.30
2023-04-07T05:59:54.559Z,23.30
2023-04-07T06:00:54.623Z,23.31
2023-04-07T06:01:54.717Z,23.31
2023-04-07T06:02:54.893Z,23.31
2023-04-07T06:03:54.821Z,23.31
2023-04-07T06:04:54.937Z,23.31
2023-04-07T06:05:54.911Z,23.31
2023-04-07T06:06:55.007Z,23.31
2023-04-07T06:07:55.056Z,23.31
2023-04-07T06:08:55.108Z,23.31
2023-04-07T06:09:55.160Z,23.31
2023-04-07T06:10:55.225Z,23.31
2023-04-07T06:11:55.297Z,23.30
2023-04-07T06:12:55.361Z,23.30
2023-04-07T06:13:55.436Z,23.31
2023-04-07T06:14:55.457Z,23.30
2023-04-07T06:15:55.528Z,23.31
2023-04-07T06:16:55.659Z,23.31
2023-04-07T06:17:55.676Z,23.31
2023-04-07T06:18:55.723Z,23.30
2023-04-07T06:19:55.796Z,23.31
2023-04-07T06:20:55.846Z,23.31
2023-04-07T06:21:55.892Z,23.31
2023-04-07T06:22:55.986Z,23.31
2023-04-07T06:23:56.036Z,23.30
2023-04-07T06:24:56.093Z,23.31
2023-04-07T06:25:56.162Z,23.31
2023-04-07T06:26:56.217Z,23.31
2023-04-07T06:27:56.285Z,23.31
2023-04-07T06:28:56.363Z,23.32
2023-04-07T06:29:56.395Z,23.32
2023-04-07T06:30:57.680Z,23.31
2023-04-07T06:31:56.515Z,23.31
2023-04-07T06:32:56.705Z,23.32
2023-04-07T06:33:56.646Z,23.32
2023-04-07T06:34:56.702Z,23.31
2023-04-07T06:35:56.792Z,23.32
2023-04-07T06:36:58.159Z,23.32
2023-04-07T06:37:56.985Z,23.32
2023-04-07T06:38:57.023Z,23.32
2023-04-07T06:39:57.072Z,23.32
2023-04-07T06:40:57.124Z,23.32
2023-04-07T06:41:57.185Z,23.32
2023-04-07T06:42:57.238Z,23.33
2023-04-07T06:43:57.347Z,23.33
2023-04-07T06:44:57.361Z,23.33
2023-04-07T06:45:57.493Z,23.33
2023-04-07T06:46:57.507Z,23.34
2023-04-07T06:47:57.653Z,23.34
2023-04-07T06:48:57.625Z,23.35
2023-04-07T06:49:57.677Z,23.35
2023-04-07T06:50:57.726Z,23.35
2023-04-07T06:51:57.818Z,23.35
2023-04-07T06:52:57.861Z,23.36
2023-04-07T06:53:57.926Z,23.36
2023-04-07T06:54:57.968Z,23.36
2023-04-07T06:55:58.043Z,23.36
2023-04-07T06:56:58.081Z,23.36
2023-04-07T06:57:58.154Z,23.36
2023-04-07T06:58:58.218Z,23.36
2023-04-07T06:59:58.277Z,23.36
2023-04-07T07:00:58.385Z,23.37
2023-04-07T07:01:58.525Z,23.38
2023-04-07T07:02:58.560Z,23.37
2023-04-07T07:03:58.580Z,23.38
2023-04-07T07:04:58.614Z,23.38
2023-04-07T07:05:58.653Z,23.39
2023-04-07T07:06:58.700Z,23.39
2023-04-07T07:07:58.762Z,23.41
2023-04-07T07:08:58.804Z,23.41
2023-04-07T07:09:58.858Z,23.41
2023-04-07T07:10:58.921Z,23.42
2023-04-07T07:11:59.030Z,23.42
2023-04-07T07:12:59.028Z,23.43
2023-04-07T07:13:59.084Z,23.43
2023-04-07T07:14:59.137Z,23.44
2023-04-07T07:15:59.252Z,23.44
2023-04-07T07:16:59.276Z,23.44
2023-04-07T07:17:59.362Z,23.45
2023-04-07T07:18:59.381Z,23.45
2023-04-07T07:19:59.450Z,23.45
2023-04-07T07:20:59.522Z,23.46
2023-04-07T07:21:59.554Z,23.47
2023-04-07T07:22:59.620Z,23.46
2023-04-07T07:23:59.664Z,23.47
2023-04-07T07:24:59.729Z,23.48
2023-04-07T07:25:59.788Z,23.48
2023-04-07T07:26:59.843Z,23.48
2023-04-07T07:27:59.881Z,23.49
2023-04-07T07:28:59.980Z,23.49
2023-04-07T07:30:00.011Z,23.50
2023-04-07T07:31:00.182Z,23.50
2023-04-07T07:32:00.135Z,23.50
2023-04-07T07:33:00.227Z,23.51
2023-04-07T07:34:00.184Z,23.54
2023-04-07T07:35:00.252Z,23.56
2023-04-07T07:36:00.359Z,23.58
2023-04-07T07:37:00.327Z,23.59
2023-04-07T07:38:00.370Z,23.60
2023-04-07T07:39:00.428Z,23.61
2023-04-07T07:40:00.475Z,23.61
2023-04-07T07:41:00.517Z,23.61
2023-04-07T07:42:00.573Z,23.62
2023-04-07T07:43:00.586Z,23.62
2023-04-07T07:44:00.642Z,23.63
2023-04-07T07:45:00.657Z,23.63
2023-04-07T07:46:00.746Z,23.63
2023-04-07T07:47:00.743Z,23.63
2023-04-07T07:48:00.831Z,23.64
2023-04-07T07:49:00.809Z,23.64
2023-04-07T07:50:00.822Z,23.64
2023-04-07T07:51:00.880Z,23.65
2023-04-07T07:52:00.916Z,23.65
2023-04-07T07:53:00.932Z,23.66
2023-04-07T07:54:00.976Z,23.67
2023-04-07T07:55:01.010Z,23.68
2023-04-07T07:56:01.052Z,23.69
2023-04-07T07:57:01.085Z,23.69
2023-04-07T07:58:01.105Z,23.70
2023-04-07T07:59:01.161Z,23.70
2023-04-07T08:00:01.208Z,23.71
2023-04-07T08:01:01.218Z,23.72
2023-04-07T08:02:01.298Z,23.73
2023-04-07T08:03:01.361Z,23.72
2023-04-07T08:04:01.352Z,23.74
2023-04-07T08:05:01.414Z,23.75
2023-04-07T08:06:01.415Z,23.75
2023-04-07T08:07:01.463Z,23.77
2023-04-07T08:08:01.477Z,23.77
2023-04-07T08:09:01.517Z,23.78
2023-04-07T08:10:01.570Z,23.80
2023-04-07T08:11:01.575Z,23.80
2023-04-07T08:12:01.646Z,23.81
2023-04-07T08:13:01.672Z,23.82
2023-04-07T08:14:01.703Z,23.82
2023-04-07T08:15:01.728Z,23.83
2023-04-07T08:16:01.815Z,23.83
2023-04-07T08:17:01.793Z,23.85
2023-04-07T08:18:01.869Z,23.86
2023-04-07T08:19:01.872Z,23.87
2023-04-07T08:20:01.919Z,23.87
2023-04-07T08:21:01.959Z,23.89
2023-04-07T08:22:01.974Z,23.89
2023-04-07T08:23:01.993Z,23.88
2023-04-07T08:24:02.017Z,23.89
2023-04-07T08:25:02.037Z,23.89
2023-04-07T08:26:02.099Z,23.91
2023-04-07T08:27:02.120Z,23.91
2023-04-07T08:28:02.129Z,23.91
2023-04-07T08:29:02.147Z,23.92
2023-04-07T08:30:02.183Z,23.92
2023-04-07T08:31:02.261Z,23.92
2023-04-07T08:32:02.249Z,23.93
2023-04-07T08:33:02.317Z,23.93
2023-04-07T08:34:02.276Z,23.94
2023-04-07T08:35:02.304Z,23.94
2023-04-07T08:36:02.356Z,23.94
2023-04-07T08:37:02.355Z,23.94
2023-04-07T08:38:02.384Z,23.95
2023-04-07T08:39:02.410Z,23.95
2023-04-07T08:40:02.447Z,23.95
2023-04-07T08:41:02.471Z,23.96
2023-04-07T08:42:02.506Z,23.95
2023-04-07T08:43:02.521Z,23.95
2023-04-07T08:44:02.548Z,23.95
2023-04-07T08:45:02.572Z,23.96
2023-04-07T08:46:02.585Z,23.96
2023-04-07T08:47:02.710Z,23.96
2023-04-07T08:48:02.704Z,23.96
2023-04-07T08:49:02.664Z,23.98
2023-04-07T08:50:02.685Z,23.98
2023-04-07T08:51:02.696Z,23.97
2023-04-07T08:52:04.770Z,23.98
2023-04-07T08:53:02.715Z,23.98
2023-04-07T08:54:02.699Z,23.98
2023-04-07T08:55:02.717Z,23.98
2023-04-07T08:56:02.699Z,23.99
2023-04-07T08:57:02.690Z,23.99
2023-04-07T08:58:02.665Z,23.99
2023-04-07T08:59:02.650Z,23.99
2023-04-07T09:00:02.655Z,24.00
2023-04-07T09:01:02.703Z,23.99
2023-04-07T09:02:02.651Z,24.00
2023-04-07T09:03:02.781Z,24.00
2023-04-07T09:04:02.753Z,24.00
2023-04-07T09:05:02.618Z,24.00
2023-04-07T09:06:02.672Z,24.00
2023-04-07T09:07:02.615Z,24.01
2023-04-07T09:08:02.603Z,24.01
2023-04-07T09:09:02.601Z,24.01
2023-04-07T09:10:02.579Z,24.01
2023-04-07T09:11:02.577Z,24.01
2023-04-07T09:12:02.587Z,24.01
2023-04-07T09:13:02.602Z,24.01
2023-04-07T09:14:02.551Z,24.01
2023-04-07T09:15:02.552Z,24.01
2023-04-07T09:16:02.648Z,24.01
2023-04-07T09:17:02.555Z,24.02
2023-04-07T09:18:02.535Z,24.01
2023-04-07T09:19:02.541Z,24.01
2023-04-07T09:20:02.542Z,24.01
2023-04-07T09:21:02.507Z,24.01
2023-04-07T09:22:02.514Z,24.02
2023-04-07T09:23:02.501Z,24.01
2023-04-07T09:24:02.495Z,24.01
2023-04-07T09:25:02.482Z,24.01
2023-04-07T09:26:02.509Z,24.01
2023-04-07T09:27:02.455Z,24.01
2023-04-07T09:28:02.565Z,24.02
2023-04-07T09:29:02.442Z,24.02
2023-04-07T09:30:02.463Z,24.01
2023-04-07T09:31:02.467Z,24.01
2023-04-07T09:32:02.463Z,24.02
2023-04-07T09:33:02.471Z,24.02
2023-04-07T09:34:02.402Z,24.01
2023-04-07T09:35:02.402Z,24.02
2023-04-07T09:36:02.480Z,24.02
2023-04-07T09:37:02.395Z,24.02
2023-04-07T09:38:02.378Z,24.02
2023-04-07T09:39:02.375Z,24.02
2023-04-07T09:40:02.369Z,24.03
2023-04-07T09:41:02.438Z,24.02
2023-04-07T09:42:02.348Z,24.03
2023-04-07T09:43:02.349Z,24.02
2023-04-07T09:44:02.364Z,24.02
2023-04-07T09:45:02.337Z,24.02
2023-04-07T09:46:02.360Z,24.02
2023-04-07T09:47:02.315Z,24.02
2023-04-07T09:48:02.450Z,24.02
2023-04-07T09:49:02.322Z,24.03
2023-04-07T09:50:02.303Z,24.04
2023-04-07T09:51:02.386Z,24.04
2023-04-07T09:52:02.276Z,24.02
2023-04-07T09:53:02.294Z,24.03
2023-04-07T09:54:02.268Z,24.02
2023-04-07T09:55:02.274Z,24.03
2023-04-07T09:56:02.254Z,24.02
2023-04-07T09:57:02.265Z,24.03
2023-04-07T09:58:02.240Z,24.03
2023-04-07T09:59:02.245Z,24.04
2023-04-07T10:00:02.266Z,24.04
2023-04-07T10:01:02.279Z,24.03
2023-04-07T10:02:02.309Z,24.03
2023-04-07T10:03:02.340Z,24.04
2023-04-07T10:04:02.255Z,24.03
2023-04-07T10:05:02.258Z,24.04
2023-04-07T10:06:02.202Z,24.03
2023-04-07T10:07:02.175Z,24.03
2023-04-07T10:08:02.237Z,24.04
2023-04-07T10:09:02.171Z,24.04
2023-04-07T10:10:02.170Z,24.04
2023-04-07T10:11:02.204Z,24.03
2023-04-07T10:12:02.163Z,24.03
2023-04-07T10:13:02.232Z,24.04
2023-04-07T10:14:02.131Z,24.03
2023-04-07T10:15:02.137Z,24.03
2023-04-07T10:16:02.125Z,24.04
2023-04-07T10:17:02.187Z,24.03
2023-04-07T10:18:02.151Z,24.03
2023-04-07T10:19:02.102Z,24.04
2023-04-07T10:20:02.086Z,24.03
2023-04-07T10:21:02.098Z,24.03
2023-04-07T10:22:02.096Z,24.02
2023-04-07T10:23:02.065Z,24.02
2023-04-07T10:24:02.078Z,24.02
2023-04-07T10:25:02.067Z,24.01
2023-04-07T10:26:02.072Z,24.01
2023-04-07T10:27:02.063Z,24.02
2023-04-07T10:28:02.049Z,24.01
2023-04-07T10:29:02.060Z,24.01
2023-04-07T10:30:02.064Z,24.01
2023-04-07T10:31:02.115Z,24.01
2023-04-07T10:32:02.078Z,24.02
2023-04-07T10:33:02.111Z,24.02
2023-04-07T10:34:02.112Z,24.02
2023-04-07T10:35:02.219Z,24.04
2023-04-07T10:36:02.163Z,24.02
2023-04-07T10:37:02.150Z,24.02
2023-04-07T10:38:02.289Z,24.02
2023-04-07T10:39:02.186Z,24.02
2023-04-07T10:40:02.205Z,24.02
2023-04-07T10:41:02.236Z,24.04
2023-04-07T10:42:02.264Z,24.04
2023-04-07T10:43:02.278Z,24.04
2023-04-07T10:44:02.296Z,24.05
2023-04-07T10:45:02.354Z,24.05
2023-04-07T10:46:02.389Z,24.05
2023-04-07T10:47:02.359Z,24.05
2023-04-07T10:48:02.390Z,24.04
2023-04-07T10:49:02.357Z,24.05
2023-04-07T10:50:02.398Z,24.04
2023-04-07T10:51:02.386Z,24.04
2023-04-07T10:52:02.418Z,24.04
2023-04-07T10:53:02.439Z,24.04
2023-04-07T10:54:02.446Z,24.04
2023-04-07T10:55:02.468Z,24.04
2023-04-07T10:56:02.495Z,24.04
2023-04-07T10:57:02.606Z,24.04
2023-04-07T10:58:02.526Z,24.03
2023-04-07T10:59:02.519Z,24.04
2023-04-07T11:00:02.561Z,24.04
2023-04-07T11:01:02.552Z,24.04
2023-04-07T11:02:02.650Z,24.04
2023-04-07T11:03:02.785Z,24.05
2023-04-07T11:04:02.736Z,24.04
2023-04-07T11:05:02.622Z,24.04
2023-04-07T11:06:02.646Z,24.03
2023-04-07T11:07:02.664Z,24.04
2023-04-07T11:08:02.670Z,24.04
2023-04-07T11:09:02.710Z,24.04
2023-04-07T11:10:02.711Z,24.04
2023-04-07T11:11:02.743Z,24.03
2023-04-07T11:12:02.759Z,24.04
2023-04-07T11:13:02.790Z,24.04
2023-04-07T11:14:02.801Z,24.05
2023-04-07T11:15:02.796Z,24.05
2023-04-07T11:16:02.846Z,24.05
2023-04-07T11:17:02.833Z,24.05
2023-04-07T11:18:02.876Z,24.06
2023-04-07T11:19:02.873Z,24.07
2023-04-07T11:20:02.974Z,24.07
2023-04-07T11:21:02.902Z,24.08
2023-04-07T11:22:02.917Z,24.07
2023-04-07T11:23:02.914Z,24.08
2023-04-07T11:24:02.946Z,24.07
2023-04-07T11:25:02.952Z,24.07
2023-04-07T11:26:02.967Z,24.07
2023-04-07T11:27:02.962Z,24.07
2023-04-07T11:28:02.981Z,24.07
2023-04-07T11:29:02.989Z,24.08
2023-04-07T11:30:03.009Z,24.06
2023-04-07T11:31:03.030Z,24.07
2023-04-07T11:32:03.052Z,24.07
2023-04-07T11:33:03.114Z,24.06
2023-04-07T11:34:03.068Z,24.07
2023-04-07T11:35:03.121Z,24.07
2023-04-07T11:36:03.135Z,24.07
2023-04-07T11:37:03.119Z,24.06
2023-04-07T11:38:03.138Z,24.07
2023-04-07T11:39:03.289Z,24.07
2023-04-07T11:40:03.152Z,24.05
2023-04-07T11:41:03.178Z,24.06
2023-04-07T11:42:03.291Z,24.05
2023-04-07T11:43:03.216Z,24.06
2023-04-07T11:44:03.229Z,24.06
2023-04-07T11:45:03.272Z,24.06
2023-04-07T11:46:03.264Z,24.06
2023-04-07T11:47:03.476Z,24.06
2023-04-07T11:48:03.306Z,24.05
2023-04-07T11:49:03.293Z,24.06
2023-04-07T11:50:03.329Z,24.06
2023-04-07T11:51:03.338Z,24.06
2023-04-07T11:52:03.534Z,24.05
2023-04-07T11:53:03.355Z,24.06
2023-04-07T11:54:03.365Z,24.05
2023-04-07T11:55:03.361Z,24.06
2023-04-07T11:56:03.374Z,24.06
2023-04-07T11:57:03.384Z,24.06
2023-04-07T11:58:03.390Z,24.06
2023-04-07T11:59:03.414Z,24.06
2023-04-07T12:00:03.438Z,24.06
2023-04-07T12:01:03.444Z,24.06
2023-04-07T12:02:03.523Z,24.06
2023-04-07T12:03:03.741Z,24.06
2023-04-07T12:04:03.701Z,24.06
2023-04-07T12:05:03.608Z,24.05
2023-04-07T12:06:03.492Z,24.06
2023-04-07T12:07:03.504Z,24.06
2023-04-07T12:08:03.542Z,24.06
2023-04-07T12:09:03.551Z,24.06
2023-04-07T12:10:03.572Z,24.06
2023-04-07T12:11:03.565Z,24.05
2023-04-07T12:12:03.633Z,24.05
2023-04-07T12:13:03.633Z,24.05
2023-04-07T12:14:03.628Z,24.05
2023-04-07T12:15:03.644Z,24.05
2023-04-07T12:16:03.663Z,24.05
2023-04-07T12:17:03.802Z,24.05
2023-04-07T12:18:03.752Z,24.05
2023-04-07T12:19:03.719Z,24.05
2023-04-07T12:20:03.723Z,24.05
2023-04-07T12:21:03.726Z,24.05
2023-04-07T12:22:03.750Z,24.05
2023-04-07T12:23:03.773Z,24.06
2023-04-07T12:24:03.789Z,24.05
2023-04-07T12:25:03.875Z,24.05
2023-04-07T12:26:03.834Z,24.05
2023-04-07T12:27:03.837Z,24.05
2023-04-07T12:28:03.842Z,24.05
2023-04-07T12:29:03.869Z,24.05
2023-04-07T12:30:03.876Z,24.06
2023-04-07T12:31:03.879Z,24.06
2023-04-07T12:32:04.051Z,24.06
2023-04-07T12:33:03.949Z,24.07
2023-04-07T12:34:03.930Z,24.06
2023-04-07T12:35:03.928Z,24.06
2023-04-07T12:36:04.056Z,24.06
2023-04-07T12:37:03.976Z,24.06
2023-04-07T12:38:03.991Z,24.06
2023-04-07T12:39:04.006Z,24.06
2023-04-07T12:40:04.007Z,24.06
2023-04-07T12:41:04.020Z,24.07
2023-04-07T12:42:04.043Z,24.06
2023-04-07T12:43:04.043Z,24.06
2023-04-07T12:44:04.072Z,24.07
2023-04-07T12:45:04.092Z,24.07
2023-04-07T12:46:04.150Z,24.07
2023-04-07T12:47:04.097Z,24.07
2023-04-07T12:48:04.271Z,24.07
2023-04-07T12:49:04.168Z,24.07
2023-04-07T12:50:04.166Z,24.07
2023-04-07T12:51:04.207Z,24.06
2023-04-07T12:52:04.181Z,24.07
2023-04-07T12:53:04.199Z,24.06